Terminal Aerodrome Forecast
Issued by NWS

Home | Current Version | Previous Version | Text Only | Print | Product List | Glossary On
Versions: 1 2 3 4 5 6 7 8 9 10 11 12 13 14 15
000
FTUS46 KPDT 201100
TAFYKM
TAF
KYKM 201120Z 2012/2112 27006KT P6SM SKC
     FM201600 VRB05KT P6SM BKN120
     FM202200 15006KT P6SM BKN150
     FM210500 26007KT P6SM BKN150
     FM211000 27010KT P6SM OVC100=

USA.gov is the U.S. government's official web portal to all federal, state and local government web resources and services.